createdAt,value
2018-05-10T00:00:49.570Z,987.62
2018-05-10T00:01:55.938Z,987.60
2018-05-10T00:03:02.327Z,987.60
2018-05-10T00:04:09.724Z,987.59
2018-05-10T00:05:15.112Z,987.62
2018-05-10T00:06:21.534Z,987.60
2018-05-10T00:07:28.905Z,987.57
2018-05-10T00:08:34.284Z,987.59
2018-05-10T00:09:40.677Z,987.53
2018-05-10T00:10:47.077Z,987.54
2018-05-10T00:11:53.502Z,987.52
2018-05-10T00:12:59.868Z,987.53
2018-05-10T00:14:06.264Z,987.52
2018-05-10T00:15:12.643Z,987.53
2018-05-10T00:16:19.071Z,987.51
2018-05-10T00:17:25.445Z,987.49
2018-05-10T00:18:31.813Z,987.47
2018-05-10T00:19:37.705Z,987.45
2018-05-10T00:20:44.616Z,987.40
2018-05-10T00:21:51.020Z,987.43
2018-05-10T00:22:57.383Z,987.43
2018-05-10T00:24:03.769Z,987.42
2018-05-10T00:25:09.665Z,987.42
2018-05-10T00:26:16.582Z,987.39
2018-05-10T00:27:22.945Z,987.39
2018-05-10T00:28:29.379Z,987.38
2018-05-10T00:29:35.725Z,987.39
2018-05-10T00:30:42.128Z,987.41
2018-05-10T00:31:48.518Z,987.42
2018-05-10T00:32:54.894Z,987.45
2018-05-10T00:34:01.388Z,987.46
2018-05-10T00:35:07.666Z,987.44
2018-05-10T00:36:14.079Z,987.46
2018-05-10T00:37:20.458Z,987.45
2018-05-10T00:38:26.827Z,987.43
2018-05-10T00:39:33.215Z,987.42
2018-05-10T00:40:39.624Z,987.43
2018-05-10T00:41:46.016Z,987.42
2018-05-10T00:42:52.374Z,987.45
2018-05-10T00:43:58.782Z,987.49
2018-05-10T00:45:05.154Z,987.46
2018-05-10T00:46:11.552Z,987.45
2018-05-10T00:47:17.932Z,987.43
2018-05-10T00:48:24.300Z,987.44
2018-05-10T00:49:30.693Z,987.47
2018-05-10T00:50:37.068Z,987.43
2018-05-10T00:51:43.493Z,987.53
2018-05-10T00:52:49.847Z,987.48
2018-05-10T00:53:56.214Z,987.51
2018-05-10T00:55:02.607Z,987.50
2018-05-10T00:56:09.014Z,987.52
2018-05-10T00:57:15.388Z,987.55
2018-05-10T00:58:21.736Z,987.56
2018-05-10T00:59:28.124Z,987.55
2018-05-10T01:00:34.511Z,987.54
2018-05-10T01:01:40.916Z,987.51
2018-05-10T01:02:47.260Z,987.53
2018-05-10T01:03:53.641Z,987.54
2018-05-10T01:05:00.010Z,987.54
2018-05-10T01:06:06.395Z,987.55
2018-05-10T01:07:12.786Z,987.55
2018-05-10T01:08:19.135Z,987.55
2018-05-10T01:09:25.504Z,987.53
2018-05-10T01:10:31.893Z,987.54
2018-05-10T01:11:38.278Z,987.55
2018-05-10T01:12:44.636Z,987.55
2018-05-10T01:13:51.008Z,987.53
2018-05-10T01:14:57.389Z,987.57
2018-05-10T01:16:13.068Z,987.54
2018-05-10T01:17:18.452Z,987.59
2018-05-10T01:18:24.820Z,987.60
2018-05-10T01:19:31.169Z,987.59
2018-05-10T01:20:37.532Z,987.65
2018-05-10T01:21:43.928Z,987.66
2018-05-10T01:22:50.272Z,987.66
2018-05-10T01:23:56.636Z,987.62
2018-05-10T01:25:02.994Z,987.63
2018-05-10T01:26:09.380Z,987.62
2018-05-10T01:27:15.748Z,987.62
2018-05-10T01:28:22.082Z,987.65
2018-05-10T01:29:28.448Z,987.66
2018-05-10T01:30:34.808Z,987.67
2018-05-10T01:31:41.214Z,987.62
2018-05-10T01:32:47.547Z,987.63
2018-05-10T01:33:54.901Z,987.63
2018-05-10T01:35:00.270Z,987.61
2018-05-10T01:36:06.647Z,987.66
2018-05-10T01:37:13.024Z,987.61
2018-05-10T01:38:19.382Z,987.66
2018-05-10T01:39:25.758Z,987.65
2018-05-10T01:40:32.092Z,987.64
2018-05-10T01:41:38.491Z,987.65
2018-05-10T01:42:44.811Z,987.70
2018-05-10T01:43:51.172Z,987.66
2018-05-10T01:44:57.538Z,987.66
2018-05-10T01:46:03.883Z,987.66
2018-05-10T01:47:10.272Z,987.69
2018-05-10T01:48:16.633Z,987.67
2018-05-10T01:49:22.957Z,987.67
2018-05-10T01:50:29.391Z,987.64
2018-05-10T01:51:35.696Z,987.70
2018-05-10T01:52:42.022Z,987.63
2018-05-10T01:53:48.376Z,987.64
2018-05-10T01:54:54.743Z,987.59
2018-05-10T01:56:01.105Z,987.62
2018-05-10T01:57:07.471Z,987.60
2018-05-10T01:58:13.793Z,987.60
2018-05-10T01:59:20.156Z,987.63
2018-05-10T02:00:26.509Z,987.59
2018-05-10T02:01:32.884Z,987.61
2018-05-10T02:02:39.225Z,987.61
2018-05-10T02:03:45.559Z,987.59
2018-05-10T02:04:51.919Z,987.60
2018-05-10T02:05:58.280Z,987.61
2018-05-10T02:07:04.641Z,987.59
2018-05-10T02:08:10.973Z,987.61
2018-05-10T02:09:18.331Z,987.59
2018-05-10T02:10:23.703Z,987.59
2018-05-10T02:11:30.049Z,987.61
2018-05-10T02:12:36.391Z,987.63
2018-05-10T02:13:42.714Z,987.58
2018-05-10T02:14:49.166Z,987.58
2018-05-10T02:15:55.420Z,987.56
2018-05-10T02:17:01.785Z,987.58
2018-05-10T02:18:08.107Z,987.57
2018-05-10T02:19:14.468Z,987.56
2018-05-10T02:20:20.810Z,987.54
2018-05-10T02:21:27.153Z,987.53
2018-05-10T02:22:33.516Z,987.59
2018-05-10T02:23:39.876Z,987.56
2018-05-10T02:24:46.500Z,987.57
2018-05-10T02:25:53.541Z,987.55
2018-05-10T02:26:58.913Z,987.53
2018-05-10T02:28:05.227Z,987.53
2018-05-10T02:29:11.569Z,987.50
2018-05-10T02:30:17.911Z,987.53
2018-05-10T02:31:24.251Z,987.57
2018-05-10T02:32:30.623Z,987.54
2018-05-10T02:33:36.964Z,987.54
2018-05-10T02:34:43.466Z,987.54
2018-05-10T02:35:49.633Z,987.54
2018-05-10T02:36:56.006Z,987.54
2018-05-10T02:38:02.303Z,987.56
2018-05-10T02:39:08.659Z,987.53
2018-05-10T02:40:14.985Z,987.58
2018-05-10T02:41:21.381Z,987.58
2018-05-10T02:42:27.693Z,987.61
2018-05-10T02:43:33.992Z,987.60
2018-05-10T02:44:40.342Z,987.59
2018-05-10T02:45:46.690Z,987.61
2018-05-10T02:46:53.048Z,987.58
2018-05-10T02:47:59.379Z,987.57
2018-05-10T02:49:05.696Z,987.58
2018-05-10T02:50:12.015Z,987.58
2018-05-10T02:51:18.352Z,987.59
2018-05-10T02:52:24.707Z,987.59
2018-05-10T02:53:31.023Z,987.57
2018-05-10T02:54:37.388Z,987.58
2018-05-10T02:55:43.686Z,987.61
2018-05-10T02:56:50.040Z,987.59
2018-05-10T02:57:56.340Z,987.61
2018-05-10T02:59:02.666Z,987.62
2018-05-10T03:00:09.005Z,987.65
2018-05-10T03:01:15.381Z,987.66
2018-05-10T03:02:21.700Z,987.69
2018-05-10T03:03:28.003Z,987.70
2018-05-10T03:04:34.327Z,987.71
2018-05-10T03:05:40.663Z,987.71
2018-05-10T03:06:47.017Z,987.71
2018-05-10T03:07:53.401Z,987.70
2018-05-10T03:08:59.656Z,987.66
2018-05-10T03:10:05.984Z,987.66
2018-05-10T03:11:12.321Z,987.65
2018-05-10T03:12:18.656Z,987.67
2018-05-10T03:13:24.974Z,987.67
2018-05-10T03:14:31.383Z,987.67
2018-05-10T03:15:37.624Z,987.66
2018-05-10T03:16:43.955Z,987.66
2018-05-10T03:17:50.328Z,987.68
2018-05-10T03:18:56.628Z,987.71
2018-05-10T03:20:03.956Z,987.70
2018-05-10T03:21:09.376Z,987.68
2018-05-10T03:22:15.644Z,987.72
2018-05-10T03:23:21.947Z,987.70
2018-05-10T03:24:28.274Z,987.66
2018-05-10T03:25:34.626Z,987.70
2018-05-10T03:26:40.942Z,987.67
2018-05-10T03:27:47.414Z,987.73
2018-05-10T03:28:53.935Z,987.75
2018-05-10T03:29:59.944Z,987.78
2018-05-10T03:31:06.273Z,987.77
2018-05-10T03:32:12.620Z,987.80
2018-05-10T03:33:18.966Z,987.77
2018-05-10T03:34:25.262Z,987.81
2018-05-10T03:35:31.601Z,987.82
2018-05-10T03:36:37.940Z,987.83
2018-05-10T03:37:44.301Z,987.86
2018-05-10T03:38:50.602Z,987.88
2018-05-10T03:39:56.934Z,987.89
2018-05-10T03:41:03.257Z,987.90
2018-05-10T03:42:09.634Z,987.96
2018-05-10T03:43:15.922Z,987.93
2018-05-10T03:44:22.257Z,987.94
2018-05-10T03:45:28.580Z,987.98
2018-05-10T03:46:34.901Z,987.98
2018-05-10T03:47:42.251Z,988.00
2018-05-10T03:48:47.584Z,988.04
2018-05-10T03:49:53.905Z,988.01
2018-05-10T03:51:00.234Z,988.06
2018-05-10T03:52:06.611Z,988.02
2018-05-10T03:53:12.904Z,988.03
2018-05-10T03:54:19.231Z,988.01
2018-05-10T03:55:25.569Z,988.01
2018-05-10T03:56:31.915Z,988.02
2018-05-10T03:57:38.277Z,988.02
2018-05-10T03:58:44.582Z,987.97
2018-05-10T03:59:50.916Z,987.98
2018-05-10T04:00:57.263Z,988.05
2018-05-10T04:02:03.614Z,988.09
2018-05-10T04:03:09.974Z,988.11
2018-05-10T04:04:16.280Z,988.12
2018-05-10T04:05:22.624Z,988.13
2018-05-10T04:06:28.971Z,988.14
2018-05-10T04:07:35.403Z,988.11
2018-05-10T04:08:41.653Z,988.13
2018-05-10T04:09:48.009Z,988.13
2018-05-10T04:10:54.333Z,988.15
2018-05-10T04:12:00.691Z,988.11
2018-05-10T04:13:07.099Z,988.18
2018-05-10T04:14:13.379Z,988.18
2018-05-10T04:15:19.740Z,988.20
2018-05-10T04:16:26.097Z,988.21
2018-05-10T04:17:32.470Z,988.23
2018-05-10T04:18:38.797Z,988.23
2018-05-10T04:19:45.150Z,988.24
2018-05-10T04:20:51.506Z,988.22
2018-05-10T04:21:57.871Z,988.22
2018-05-10T04:23:04.252Z,988.26
2018-05-10T04:24:10.579Z,988.28
2018-05-10T04:25:16.946Z,988.26
2018-05-10T04:26:23.387Z,988.21
2018-05-10T04:27:29.694Z,988.29
2018-05-10T04:28:36.048Z,988.24
2018-05-10T04:29:42.385Z,988.24
2018-05-10T04:30:48.798Z,988.22
2018-05-10T04:31:55.128Z,988.22
2018-05-10T04:33:01.523Z,988.24
2018-05-10T04:34:07.883Z,988.28
2018-05-10T04:35:14.240Z,988.27
2018-05-10T04:36:20.618Z,988.27
2018-05-10T04:37:26.979Z,988.23
2018-05-10T04:38:33.401Z,988.25
2018-05-10T04:39:39.748Z,988.25
2018-05-10T04:40:46.118Z,988.23
2018-05-10T04:41:52.505Z,988.23
2018-05-10T04:42:58.894Z,988.22
2018-05-10T04:44:05.277Z,988.26
2018-05-10T04:45:11.678Z,988.25
2018-05-10T04:46:18.030Z,988.22
2018-05-10T04:47:24.416Z,988.26
2018-05-10T04:48:30.841Z,988.19
2018-05-10T04:49:37.206Z,988.25
2018-05-10T04:50:43.587Z,988.25
2018-05-10T04:51:49.985Z,988.26
2018-05-10T04:52:56.375Z,988.32
2018-05-10T04:54:02.801Z,988.35
2018-05-10T04:55:09.185Z,988.36
2018-05-10T04:56:15.572Z,988.37
2018-05-10T04:57:22.966Z,988.37
2018-05-10T04:58:28.411Z,988.38
2018-05-10T04:59:34.785Z,988.39
2018-05-10T05:00:41.175Z,988.40
2018-05-10T05:01:47.594Z,988.48
2018-05-10T05:02:53.982Z,988.45
2018-05-10T05:04:00.408Z,988.46
2018-05-10T05:05:06.792Z,988.42
2018-05-10T05:06:12.891Z,988.41
2018-05-10T05:07:19.094Z,988.45
2018-05-10T05:08:25.994Z,988.42
2018-05-10T05:09:32.433Z,988.45
2018-05-10T05:10:38.812Z,988.47
2018-05-10T05:11:45.210Z,988.49
2018-05-10T05:12:51.113Z,988.48
2018-05-10T05:13:58.023Z,988.41
2018-05-10T05:15:04.432Z,988.48
2018-05-10T05:16:10.802Z,988.51
2018-05-10T05:17:16.718Z,988.48
2018-05-10T05:18:23.615Z,988.51
2018-05-10T05:19:30.045Z,988.54
2018-05-10T05:20:36.422Z,988.53
2018-05-10T05:21:42.833Z,988.59
2018-05-10T05:22:49.243Z,988.57
2018-05-10T05:23:55.655Z,988.60
2018-05-10T05:25:02.091Z,988.59
2018-05-10T05:26:08.477Z,988.60
2018-05-10T05:27:14.897Z,988.64
2018-05-10T05:28:21.310Z,988.67
2018-05-10T05:29:27.721Z,988.66
2018-05-10T05:30:33.664Z,988.68
2018-05-10T05:31:40.549Z,988.70
2018-05-10T05:32:47.090Z,988.71
2018-05-10T05:33:53.417Z,988.68
2018-05-10T05:34:59.816Z,988.76
2018-05-10T05:36:06.251Z,988.78
2018-05-10T05:37:12.660Z,988.75
2018-05-10T05:38:19.069Z,988.78
2018-05-10T05:39:25.486Z,988.80
2018-05-10T05:40:31.444Z,988.89
2018-05-10T05:41:38.376Z,988.91
2018-05-10T05:42:44.753Z,988.98
2018-05-10T05:43:51.179Z,989.01
2018-05-10T05:44:57.596Z,989.03
2018-05-10T05:46:04.055Z,989.06
2018-05-10T05:47:11.433Z,989.11
2018-05-10T05:48:16.877Z,989.19
2018-05-10T05:49:23.292Z,989.22
2018-05-10T05:50:29.714Z,989.18
2018-05-10T05:51:36.154Z,989.19
2018-05-10T05:52:42.565Z,989.17
2018-05-10T05:53:48.973Z,989.21
2018-05-10T05:54:54.888Z,989.27
2018-05-10T05:56:01.842Z,989.31
2018-05-10T05:57:07.724Z,989.35
2018-05-10T05:58:14.648Z,989.37
2018-05-10T05:59:21.043Z,989.40
2018-05-10T06:00:27.469Z,989.35
2018-05-10T06:01:33.919Z,989.40
2018-05-10T06:02:40.384Z,989.44
2018-05-10T06:03:47.696Z,989.49
2018-05-10T06:04:53.126Z,989.45
2018-05-10T06:05:59.548Z,989.44
2018-05-10T06:07:06.006Z,989.47
2018-05-10T06:08:12.398Z,989.55
2018-05-10T06:09:18.831Z,989.51
2018-05-10T06:10:25.258Z,989.41
2018-05-10T06:11:31.682Z,989.41
2018-05-10T06:12:38.143Z,989.41
2018-05-10T06:13:44.560Z,989.45
2018-05-10T06:14:51.019Z,989.39
2018-05-10T06:15:57.523Z,989.38
2018-05-10T06:17:03.905Z,989.41
2018-05-10T06:18:10.397Z,989.40
2018-05-10T06:19:17.816Z,989.48
2018-05-10T06:20:23.275Z,989.48
2018-05-10T06:21:29.742Z,989.46
2018-05-10T06:22:35.723Z,989.47
2018-05-10T06:23:42.657Z,989.51
2018-05-10T06:24:48.645Z,989.51
2018-05-10T06:25:55.581Z,989.55
2018-05-10T06:27:01.548Z,989.54
2018-05-10T06:28:08.528Z,989.42
2018-05-10T06:29:14.983Z,989.45
2018-05-10T06:30:20.967Z,989.41
2018-05-10T06:31:27.939Z,989.40
2018-05-10T06:32:34.466Z,989.37
2018-05-10T06:33:40.910Z,989.38
2018-05-10T06:34:47.395Z,989.40
2018-05-10T06:35:53.902Z,989.42
2018-05-10T06:37:00.381Z,989.46
2018-05-10T06:38:06.886Z,989.46
2018-05-10T06:39:12.861Z,989.51
2018-05-10T06:40:19.840Z,989.53
2018-05-10T06:41:26.448Z,989.53
2018-05-10T06:42:32.844Z,989.55
2018-05-10T06:43:39.320Z,989.59
2018-05-10T06:44:45.803Z,989.58
2018-05-10T06:45:52.377Z,989.59
2018-05-10T06:46:58.840Z,989.58
2018-05-10T06:48:05.281Z,989.64
2018-05-10T06:49:11.774Z,989.60
2018-05-10T06:50:18.230Z,989.63
2018-05-10T06:51:24.720Z,989.64
2018-05-10T06:52:31.256Z,989.68
2018-05-10T06:53:37.686Z,989.66
2018-05-10T06:54:43.766Z,989.69
2018-05-10T06:55:50.688Z,989.68
2018-05-10T06:56:57.177Z,989.74
2018-05-10T06:58:03.699Z,989.66
2018-05-10T06:59:10.176Z,989.68
2018-05-10T07:00:16.673Z,989.73
2018-05-10T07:01:22.699Z,989.81
2018-05-10T07:02:29.713Z,989.83
2018-05-10T07:03:36.219Z,989.90
2018-05-10T07:04:42.731Z,989.94
2018-05-10T07:05:48.741Z,989.96
2018-05-10T07:06:55.758Z,989.99
2018-05-10T07:08:01.805Z,989.98
2018-05-10T07:09:08.321Z,990.01
2018-05-10T07:10:15.340Z,990.02
2018-05-10T07:11:21.868Z,990.01
2018-05-10T07:12:27.938Z,990.02
2018-05-10T07:13:34.948Z,990.12
2018-05-10T07:14:41.507Z,990.05
2018-05-10T07:15:48.546Z,990.24
2018-05-10T07:16:55.111Z,990.10
2018-05-10T07:18:01.186Z,990.16
2018-05-10T07:19:07.717Z,990.22
2018-05-10T07:20:13.776Z,990.20
2018-05-10T07:21:20.850Z,990.24
2018-05-10T07:22:26.938Z,990.31
2018-05-10T07:23:34.038Z,990.32
2018-05-10T07:24:40.560Z,990.26
2018-05-10T07:25:47.158Z,990.24
2018-05-10T07:26:53.755Z,990.22
2018-05-10T07:28:00.407Z,990.19
2018-05-10T07:29:06.745Z,990.23
2018-05-10T07:30:13.560Z,990.21
2018-05-10T07:31:20.171Z,990.20
2018-05-10T07:32:26.804Z,990.26
2018-05-10T07:33:32.945Z,990.27
2018-05-10T07:34:39.570Z,990.28
2018-05-10T07:35:46.201Z,990.20
2018-05-10T07:36:53.350Z,990.21
2018-05-10T07:38:00.035Z,990.24
2018-05-10T07:39:06.669Z,990.27
2018-05-10T07:40:13.337Z,990.22
2018-05-10T07:41:20.008Z,990.28
2018-05-10T07:42:26.681Z,990.26
2018-05-10T07:43:33.394Z,990.34
2018-05-10T07:44:40.053Z,990.37
2018-05-10T07:45:46.747Z,990.25
2018-05-10T07:46:53.411Z,990.27
2018-05-10T07:48:00.113Z,990.24
2018-05-10T07:49:06.268Z,990.24
2018-05-10T07:50:13.429Z,990.27
2018-05-10T07:51:19.595Z,990.29
2018-05-10T07:52:26.752Z,990.29
2018-05-10T07:53:33.421Z,990.51
2018-05-10T07:54:40.049Z,990.42
2018-05-10T07:55:46.695Z,990.49
2018-05-10T07:56:52.832Z,990.53
2018-05-10T07:57:59.967Z,990.51
2018-05-10T07:59:06.086Z,990.60
2018-05-10T08:00:13.188Z,990.58
2018-05-10T08:01:19.840Z,990.59
2018-05-10T08:02:26.445Z,990.62
2018-05-10T08:03:32.593Z,990.69
2018-05-10T08:04:39.700Z,990.68
2018-05-10T08:05:46.385Z,990.70
2018-05-10T08:06:52.983Z,990.68
2018-05-10T08:07:59.656Z,990.70
2018-05-10T08:09:06.384Z,990.75
2018-05-10T08:10:13.065Z,990.67
2018-05-10T08:11:19.690Z,990.71
2018-05-10T08:12:26.389Z,990.79
2018-05-10T08:13:33.109Z,990.75
2018-05-10T08:14:39.791Z,990.75
2018-05-10T08:15:45.990Z,990.75
2018-05-10T08:16:52.704Z,990.79
2018-05-10T08:17:59.903Z,990.78
2018-05-10T08:19:06.568Z,990.74
2018-05-10T08:20:12.759Z,990.73
2018-05-10T08:21:19.941Z,990.75
2018-05-10T08:22:26.637Z,990.80
2018-05-10T08:23:32.813Z,990.76
2018-05-10T08:24:39.940Z,990.74
2018-05-10T08:25:46.619Z,990.78
2018-05-10T08:26:52.801Z,990.75
2018-05-10T08:27:59.975Z,990.75
2018-05-10T08:29:06.623Z,990.72
2018-05-10T08:30:13.303Z,990.71
2018-05-10T08:31:20.010Z,990.69
2018-05-10T08:32:26.676Z,990.62
2018-05-10T08:33:32.898Z,990.64
2018-05-10T08:34:40.069Z,990.65
2018-05-10T08:35:46.271Z,990.62
2018-05-10T08:36:53.059Z,990.62
2018-05-10T08:38:00.178Z,990.67
2018-05-10T08:39:06.890Z,990.67
2018-05-10T08:40:13.097Z,990.68
2018-05-10T08:41:20.468Z,990.73
2018-05-10T08:42:26.986Z,990.68
2018-05-10T08:43:33.712Z,990.68
2018-05-10T08:44:40.417Z,990.69
2018-05-10T08:45:47.170Z,990.75
2018-05-10T08:46:53.325Z,990.73
2018-05-10T08:48:00.534Z,990.74
2018-05-10T08:49:07.242Z,990.77
2018-05-10T08:50:13.954Z,990.76
2018-05-10T08:51:20.196Z,990.79
2018-05-10T08:52:27.437Z,990.78
2018-05-10T08:53:34.178Z,990.73
2018-05-10T08:54:40.902Z,990.70
2018-05-10T08:55:47.655Z,990.73
2018-05-10T08:56:54.425Z,990.67
2018-05-10T08:58:01.183Z,990.69
2018-05-10T08:59:07.414Z,990.66
2018-05-10T09:00:14.671Z,990.62
2018-05-10T09:01:21.596Z,990.67
2018-05-10T09:02:28.192Z,990.71
2018-05-10T09:03:34.981Z,990.71
2018-05-10T09:04:41.728Z,990.74
2018-05-10T09:05:48.500Z,990.79
2018-05-10T09:06:55.281Z,990.76
2018-05-10T09:08:02.585Z,990.82
2018-05-10T09:09:08.406Z,990.80
2018-05-10T09:10:15.704Z,990.84
2018-05-10T09:11:22.391Z,990.84
2018-05-10T09:12:29.153Z,990.83
2018-05-10T09:13:35.505Z,990.79
2018-05-10T09:14:42.743Z,990.81
2018-05-10T09:15:49.037Z,990.81
2018-05-10T09:16:55.827Z,990.83
2018-05-10T09:18:03.168Z,990.83
2018-05-10T09:19:09.952Z,990.87
2018-05-10T09:20:16.884Z,990.87
2018-05-10T09:21:23.572Z,990.87
2018-05-10T09:22:29.903Z,990.91
2018-05-10T09:23:37.235Z,990.89
2018-05-10T09:24:44.051Z,990.89
2018-05-10T09:25:50.359Z,990.91
2018-05-10T09:26:58.184Z,990.90
2018-05-10T09:28:04.511Z,990.96
2018-05-10T09:29:11.308Z,990.99
2018-05-10T09:30:18.129Z,991.00
2018-05-10T09:31:24.957Z,991.02
2018-05-10T09:32:31.770Z,991.03
2018-05-10T09:33:38.124Z,990.98
2018-05-10T09:34:44.929Z,991.04
2018-05-10T09:35:51.760Z,991.00
2018-05-10T09:36:59.088Z,991.01
2018-05-10T09:38:05.451Z,991.09
2018-05-10T09:39:12.773Z,991.05
2018-05-10T09:40:19.611Z,991.08
2018-05-10T09:41:26.450Z,991.08
2018-05-10T09:42:33.318Z,991.13
2018-05-10T09:43:40.200Z,991.05
2018-05-10T09:44:46.548Z,991.09
2018-05-10T09:45:53.919Z,991.10
2018-05-10T09:47:01.783Z,991.12
2018-05-10T09:48:07.693Z,991.13
2018-05-10T09:49:14.561Z,991.10
2018-05-10T09:50:21.527Z,991.16
2018-05-10T09:51:28.404Z,991.13
2018-05-10T09:55:31.624Z,991.21
2018-05-10T09:56:37.751Z,991.14
2018-05-10T09:57:45.603Z,991.15
2018-05-10T09:58:53.510Z,991.22
2018-05-10T09:59:58.327Z,991.22
2018-05-10T10:02:13.229Z,991.26
2018-05-10T10:03:19.205Z,991.22
2018-05-10T10:04:25.764Z,991.34
2018-05-10T10:05:32.610Z,991.33
2018-05-10T10:06:39.441Z,991.33
2018-05-10T10:07:46.268Z,991.28
2018-05-10T10:08:53.109Z,991.37
2018-05-10T10:09:59.381Z,991.32
2018-05-10T10:11:06.702Z,991.36
2018-05-10T10:12:13.519Z,991.40
2018-05-10T10:13:19.878Z,991.38
2018-05-10T10:14:27.152Z,991.37
2018-05-10T10:15:34.000Z,991.37
2018-05-10T10:16:40.827Z,991.37
2018-05-10T10:17:47.149Z,991.40
2018-05-10T10:18:54.523Z,991.38
2018-05-10T10:20:01.328Z,991.33
2018-05-10T10:21:07.683Z,991.41
2018-05-10T10:22:14.536Z,991.36
2018-05-10T10:23:22.002Z,991.37
2018-05-10T10:24:28.768Z,991.43
2018-05-10T10:25:35.639Z,991.39
2018-05-10T10:26:42.498Z,991.40
2018-05-10T10:27:49.372Z,991.44
2018-05-10T10:28:56.409Z,991.45
2018-05-10T10:30:03.137Z,991.51
2018-05-10T10:31:10.011Z,991.50
2018-05-10T10:32:16.971Z,991.47
2018-05-10T10:33:23.794Z,991.48
2018-05-10T10:34:30.711Z,991.46
2018-05-10T10:35:37.523Z,991.45
2018-05-10T10:36:44.388Z,991.50
2018-05-10T10:37:51.272Z,991.52
2018-05-10T10:38:58.153Z,991.50
2018-05-10T10:40:04.997Z,991.52
2018-05-10T10:41:11.831Z,991.54
2018-05-10T10:42:18.695Z,991.53
2018-05-10T10:43:25.092Z,991.53
2018-05-10T10:44:31.920Z,991.56
2018-05-10T10:45:39.277Z,991.53
2018-05-10T10:46:45.648Z,991.59
2018-05-10T10:47:52.971Z,991.61
2018-05-10T10:49:00.819Z,991.57
2018-05-10T10:50:06.627Z,991.57
2018-05-10T10:51:12.967Z,991.62
2018-05-10T10:52:20.382Z,991.60
2018-05-10T10:53:27.147Z,991.56
2018-05-10T10:54:33.963Z,991.65
2018-05-10T10:55:40.830Z,991.61
2018-05-10T10:56:47.677Z,991.68
2018-05-10T10:57:54.528Z,991.62
2018-05-10T10:59:00.906Z,991.66
2018-05-10T11:00:07.753Z,991.71
2018-05-10T11:01:15.112Z,991.68
2018-05-10T11:02:21.501Z,991.72
2018-05-10T11:03:28.395Z,991.72
2018-05-10T11:04:35.747Z,991.73
2018-05-10T11:05:42.639Z,991.81
2018-05-10T11:06:49.546Z,991.80
2018-05-10T11:07:56.454Z,991.83
2018-05-10T11:09:03.397Z,991.83
2018-05-10T11:10:09.743Z,991.79
2018-05-10T11:11:17.154Z,991.91
2018-05-10T11:12:24.056Z,991.85
2018-05-10T11:13:30.966Z,991.84
2018-05-10T11:14:37.356Z,991.87
2018-05-10T11:15:44.765Z,991.90
2018-05-10T11:16:51.184Z,991.89
2018-05-10T11:17:59.564Z,991.89
2018-05-10T11:19:04.991Z,991.80
2018-05-10T11:20:12.399Z,991.87
2018-05-10T11:21:19.244Z,991.86
2018-05-10T11:22:26.145Z,991.89
2018-05-10T11:23:32.587Z,991.87
2018-05-10T11:24:39.951Z,991.92
2018-05-10T11:25:46.364Z,991.94
2018-05-10T11:26:53.280Z,991.94
2018-05-10T11:28:00.732Z,992.04
2018-05-10T11:29:07.688Z,991.94
2018-05-10T11:30:14.591Z,992.07
2018-05-10T11:31:21.550Z,992.01
2018-05-10T11:32:28.501Z,992.02
2018-05-10T11:33:35.486Z,991.97
2018-05-10T11:34:42.439Z,992.00
2018-05-10T11:35:49.438Z,991.98
2018-05-10T11:36:56.467Z,992.02
2018-05-10T11:38:03.480Z,992.03
2018-05-10T11:39:10.643Z,992.03
2018-05-10T11:40:17.590Z,992.10
2018-05-10T11:41:24.663Z,992.05
2018-05-10T11:42:31.240Z,992.05
2018-05-10T11:43:38.828Z,992.12
2018-05-10T11:44:45.882Z,992.08
2018-05-10T11:45:52.456Z,992.08
2018-05-10T11:47:00.019Z,992.13
2018-05-10T11:48:07.076Z,992.22
2018-05-10T11:49:14.180Z,992.13
2018-05-10T11:50:21.223Z,992.17
2018-05-10T11:51:28.378Z,992.19
2018-05-10T11:52:35.369Z,992.23
2018-05-10T11:53:42.472Z,992.13
2018-05-10T11:54:49.516Z,992.18
2018-05-10T11:55:56.078Z,992.26
2018-05-10T11:57:03.632Z,992.18
2018-05-10T11:58:10.395Z,992.22
2018-05-10T11:59:17.788Z,992.18
2018-05-10T12:00:24.835Z,992.32
2018-05-10T12:01:31.919Z,992.28
2018-05-10T12:02:39.119Z,992.46
2018-05-10T12:03:46.635Z,992.38
2018-05-10T12:04:53.196Z,992.43
2018-05-10T12:05:59.862Z,992.46
2018-05-10T12:07:07.385Z,992.43
2018-05-10T12:08:14.523Z,992.42
2018-05-10T12:09:21.679Z,992.47
2018-05-10T12:10:28.322Z,992.44
2018-05-10T12:11:35.985Z,992.49
2018-05-10T12:12:43.149Z,992.62
2018-05-10T12:13:50.408Z,992.61
2018-05-10T12:14:57.432Z,992.57
2018-05-10T12:16:04.544Z,992.56
2018-05-10T12:17:11.666Z,992.57
2018-05-10T12:18:18.842Z,992.60
2018-05-10T12:19:25.417Z,992.96
2018-05-10T12:20:33.055Z,992.58
2018-05-10T12:21:40.093Z,992.60
2018-05-10T12:22:46.684Z,992.65
2018-05-10T12:23:54.400Z,992.81
2018-05-10T12:25:01.372Z,992.62
2018-05-10T12:26:07.973Z,992.63
2018-05-10T12:27:15.556Z,992.78
2018-05-10T12:28:22.657Z,992.59
2018-05-10T12:29:29.744Z,992.65
2018-05-10T12:30:36.288Z,992.78
2018-05-10T12:31:43.813Z,992.75
2018-05-10T12:32:50.831Z,992.89
2018-05-10T12:33:57.833Z,992.74
2018-05-10T12:35:04.745Z,992.86
2018-05-10T12:36:11.679Z,992.89
2018-05-10T12:37:18.105Z,992.97
2018-05-10T12:38:24.995Z,993.08
2018-05-10T12:39:32.398Z,993.05
2018-05-10T12:40:39.233Z,993.13
2018-05-10T12:41:45.610Z,993.09
2018-05-10T12:42:52.921Z,993.13
2018-05-10T12:43:59.752Z,993.20
2018-05-10T12:45:06.534Z,993.17
2018-05-10T12:46:13.322Z,993.29
2018-05-10T12:47:19.588Z,993.32
2018-05-10T12:48:26.848Z,993.37
2018-05-10T12:49:33.133Z,993.30
2018-05-10T12:50:39.835Z,993.30
2018-05-10T12:51:47.086Z,993.35
2018-05-10T12:52:53.817Z,993.35
2018-05-10T12:54:00.566Z,993.38
2018-05-10T12:55:06.776Z,993.35
2018-05-10T12:56:14.078Z,993.43
2018-05-10T12:57:20.223Z,993.40
2018-05-10T12:58:27.463Z,993.41
2018-05-10T12:59:33.716Z,993.42
2018-05-10T13:00:40.432Z,993.49
2018-05-10T13:01:47.665Z,993.50
2018-05-10T13:02:54.452Z,993.40
2018-05-10T13:04:01.155Z,993.43
2018-05-10T13:05:07.900Z,993.63
2018-05-10T13:06:14.655Z,993.56
2018-05-10T13:07:20.920Z,993.50
2018-05-10T13:08:28.271Z,993.56
2018-05-10T13:09:34.994Z,993.52
2018-05-10T13:10:41.262Z,993.58
2018-05-10T13:11:48.560Z,993.57
2018-05-10T13:12:54.882Z,993.68
2018-05-10T13:14:02.226Z,993.75
2018-05-10T13:15:09.056Z,993.64
2018-05-10T13:16:16.005Z,993.70
2018-05-10T13:17:22.817Z,993.71
2018-05-10T13:18:30.729Z,993.79
2018-05-10T13:19:36.679Z,993.68
2018-05-10T13:20:43.094Z,993.61
2018-05-10T13:21:50.583Z,993.89
2018-05-10T13:22:57.420Z,993.80
2018-05-10T13:24:04.404Z,993.75
2018-05-10T13:25:11.758Z,993.78
2018-05-10T13:26:18.176Z,993.82
2018-05-10T13:27:25.196Z,993.78
2018-05-10T13:28:32.102Z,993.89
2018-05-10T13:29:38.589Z,993.96
2018-05-10T13:30:45.555Z,993.81
2018-05-10T13:31:52.555Z,993.87
2018-05-10T13:33:00.050Z,993.83
2018-05-10T13:34:06.536Z,993.84
2018-05-10T13:35:13.982Z,993.79
2018-05-10T13:36:20.949Z,993.93
2018-05-10T13:37:27.887Z,993.92
2018-05-10T13:38:34.351Z,993.89
2018-05-10T13:39:41.822Z,993.92
2018-05-10T13:40:48.328Z,993.89
2018-05-10T13:41:55.531Z,993.86
2018-05-10T13:43:02.203Z,993.87
2018-05-10T13:44:09.194Z,993.90
2018-05-10T13:45:16.174Z,993.84
2018-05-10T13:46:23.157Z,993.99
2018-05-10T13:47:30.667Z,994.03
2018-05-10T13:48:37.114Z,994.00
2018-05-10T13:49:44.572Z,993.94
2018-05-10T13:50:51.497Z,994.00
2018-05-10T13:51:58.430Z,993.98
2018-05-10T13:53:05.505Z,994.05
2018-05-10T13:54:12.403Z,994.09
2018-05-10T13:55:19.206Z,994.21